sensor_id;sensor_type;location;lat;lon;timestamp;pressure;altitude;pressure_sealevel;temperature;humidity
5879;BME280;2965;42.640;23.370;2023-02-04T05:02:25;93994.31;;;1.21;100.00
5879;BME280;2965;42.640;23.370;2023-02-04T05:04:51;93997.63;;;1.04;100.00
5879;BME280;2965;42.640;23.370;2023-02-04T05:07:17;94003.84;;;1.11;100.00
5879;BME280;2965;42.640;23.370;2023-02-04T05:09:43;93983.78;;;1.05;100.00
5879;BME280;2965;42.640;23.370;2023-02-04T05:12:08;93991.38;;;0.97;100.00
5879;BME280;2965;42.640;23.370;2023-02-04T05:14:34;94006.59;;;0.81;100.00
5879;BME280;2965;42.640;23.370;2023-02-04T05:16:59;93993.28;;;0.95;100.00
5879;BME280;2965;42.640;23.370;2023-02-04T05:19:24;93992.72;;;1.01;100.00
5879;BME280;2965;42.640;23.370;2023-02-04T05:21:50;94000.84;;;1.16;100.00
5879;BME280;2965;42.640;23.370;2023-02-04T05:24:15;94016.00;;;1.19;100.00
5879;BME280;2965;42.640;23.370;2023-02-04T05:26:41;94012.75;;;1.26;100.00
5879;BME280;2965;42.640;23.370;2023-02-04T05:29:06;94016.94;;;1.27;100.00
5879;BME280;2965;42.640;23.370;2023-02-04T05:31:31;94025.22;;;1.31;100.00
5879;BME280;2965;42.640;23.370;2023-02-04T05:33:58;94027.38;;;1.36;100.00
5879;BME280;2965;42.640;23.370;2023-02-04T05:36:23;94034.72;;;1.31;100.00
5879;BME280;2965;42.640;23.370;2023-02-04T05:38:48;94040.69;;;1.31;100.00
5879;BME280;2965;42.640;23.370;2023-02-04T05:41:14;94032.28;;;1.39;100.00
5879;BME280;2965;42.640;23.370;2023-02-04T05:43:39;94046.38;;;1.35;100.00
5879;BME280;2965;42.640;23.370;2023-02-04T05:46:05;94047.22;;;1.16;100.00
5879;BME280;2965;42.640;23.370;2023-02-04T05:48:30;94066.50;;;1.02;100.00
5879;BME280;2965;42.640;23.370;2023-02-04T05:50:55;94049.09;;;1.23;100.00
5879;BME280;2965;42.640;23.370;2023-02-04T05:53:21;94069.31;;;1.85;100.00
5879;BME280;2965;42.640;23.370;2023-02-04T05:55:46;94069.00;;;1.97;100.00
5879;BME280;2965;42.640;23.370;2023-02-04T05:58:11;94046.09;;;2.12;100.00
5879;BME280;2965;42.640;23.370;2023-02-04T06:00:37;94039.53;;;2.27;100.00
5879;BME280;2965;42.640;23.370;2023-02-04T06:03:02;94034.56;;;2.34;100.00
5879;BME280;2965;42.640;23.370;2023-02-04T06:05:28;94018.28;;;2.34;100.00
5879;BME280;2965;42.640;23.370;2023-02-04T06:07:53;94021.09;;;2.40;100.00
5879;BME280;2965;42.640;23.370;2023-02-04T06:10:19;94032.91;;;2.43;100.00
5879;BME280;2965;42.640;23.370;2023-02-04T06:12:46;94041.91;;;2.57;100.00
5879;BME280;2965;42.640;23.370;2023-02-04T06:15:11;94045.25;;;2.67;100.00
5879;BME280;2965;42.640;23.370;2023-02-04T06:17:37;94045.47;;;2.73;100.00
5879;BME280;2965;42.640;23.370;2023-02-04T06:20:03;94051.97;;;2.77;100.00
5879;BME280;2965;42.640;23.370;2023-02-04T06:22:28;94045.47;;;2.91;100.00
5879;BME280;2965;42.640;23.370;2023-02-04T06:24:54;94056.16;;;2.96;100.00
5879;BME280;2965;42.640;23.370;2023-02-04T06:27:19;94055.72;;;3.01;100.00
5879;BME280;2965;42.640;23.370;2023-02-04T06:29:51;94050.63;;;3.09;100.00
5879;BME280;2965;42.640;23.370;2023-02-04T06:32:17;94058.75;;;3.14;100.00
5879;BME280;2965;42.640;23.370;2023-02-04T06:34:43;94050.34;;;3.12;100.00
5879;BME280;2965;42.640;23.370;2023-02-04T06:37:08;94060.41;;;3.15;100.00
5879;BME280;2965;42.640;23.370;2023-02-04T06:39:34;94050.41;;;3.20;100.00
5879;BME280;2965;42.640;23.370;2023-02-04T06:41:59;94049.69;;;3.28;100.00
5879;BME280;2965;42.640;23.370;2023-02-04T06:44:24;94052.91;;;3.30;100.00
5879;BME280;2965;42.640;23.370;2023-02-04T06:46:50;94041.75;;;3.29;100.00
5879;BME280;2965;42.640;23.370;2023-02-04T06:49:15;94052.56;;;3.25;100.00
5879;BME280;2965;42.640;23.370;2023-02-04T06:51:40;94063.34;;;3.20;100.00
5879;BME280;2965;42.640;23.370;2023-02-04T06:54:06;94044.63;;;3.26;100.00
5879;BME280;2965;42.640;23.370;2023-02-04T06:56:31;94056.97;;;3.33;100.00
5879;BME280;2965;42.640;23.370;2023-02-04T06:58:56;94056.66;;;3.36;100.00
5879;BME280;2965;42.640;23.370;2023-02-04T07:01:22;94049.25;;;3.41;100.00
5879;BME280;2965;42.640;23.370;2023-02-04T07:03:47;94051.91;;;3.49;100.00
5879;BME280;2965;42.640;23.370;2023-02-04T07:06:12;94050.19;;;3.58;100.00
5879;BME280;2965;42.640;23.370;2023-02-04T07:08:38;94041.97;;;3.62;100.00
5879;BME280;2965;42.640;23.370;2023-02-04T07:11:03;94036.50;;;3.65;100.00
5879;BME280;2965;42.640;23.370;2023-02-04T07:13:28;94033.91;;;3.65;100.00
5879;BME280;2965;42.640;23.370;2023-02-04T07:15:54;94032.94;;;3.66;100.00
5879;BME280;2965;42.640;23.370;2023-02-04T07:18:19;94044.59;;;3.70;100.00
5879;BME280;2965;42.640;23.370;2023-02-04T07:20:45;94029.59;;;3.74;100.00
5879;BME280;2965;42.640;23.370;2023-02-04T07:23:10;94038.72;;;3.86;100.00
5879;BME280;2965;42.640;23.370;2023-02-04T07:25:35;94031.81;;;3.95;100.00
5879;BME280;2965;42.640;23.370;2023-02-04T07:28:03;94030.06;;;4.03;100.00
5879;BME280;2965;42.640;23.370;2023-02-04T07:30:30;94011.75;;;3.97;100.00
5879;BME280;2965;42.640;23.370;2023-02-04T07:32:55;94024.88;;;3.95;100.00
5879;BME280;2965;42.640;23.370;2023-02-04T07:35:21;94022.44;;;4.02;100.00
5879;BME280;2965;42.640;23.370;2023-02-04T07:37:46;94023.84;;;4.22;100.00
5879;BME280;2965;42.640;23.370;2023-02-04T07:40:12;94011.91;;;4.38;100.00
5879;BME280;2965;42.640;23.370;2023-02-04T07:42:37;94021.31;;;4.47;100.00
5879;BME280;2965;42.640;23.370;2023-02-04T07:45:03;94028.50;;;4.61;100.00
5879;BME280;2965;42.640;23.370;2023-02-04T07:47:28;94019.25;;;4.59;100.00
5879;BME280;2965;42.640;23.370;2023-02-04T07:49:54;94022.78;;;4.49;100.00
5879;BME280;2965;42.640;23.370;2023-02-04T07:52:22;94024.41;;;4.59;100.00
5879;BME280;2965;42.640;23.370;2023-02-04T07:54:47;94022.03;;;4.65;100.00
5879;BME280;2965;42.640;23.370;2023-02-04T07:57:13;94019.75;;;4.62;100.00
5879;BME280;2965;42.640;23.370;2023-02-04T07:59:38;94024.91;;;4.62;100.00
5879;BME280;2965;42.640;23.370;2023-02-04T08:02:04;94021.34;;;4.55;100.00
5879;BME280;2965;42.640;23.370;2023-02-04T08:04:29;94019.91;;;4.69;100.00
5879;BME280;2965;42.640;23.370;2023-02-04T08:06:55;94021.00;;;4.50;100.00
5879;BME280;2965;42.640;23.370;2023-02-04T08:09:20;94025.50;;;4.40;100.00
5879;BME280;2965;42.640;23.370;2023-02-04T08:11:45;94030.69;;;4.40;100.00
5879;BME280;2965;42.640;23.370;2023-02-04T08:14:11;94022.59;;;4.35;100.00
5879;BME280;2965;42.640;23.370;2023-02-04T08:16:36;94035.81;;;4.23;100.00
5879;BME280;2965;42.640;23.370;2023-02-04T08:19:02;94024.84;;;4.29;100.00
5879;BME280;2965;42.640;23.370;2023-02-04T08:21:28;94019.97;;;4.26;100.00
5879;BME280;2965;42.640;23.370;2023-02-04T08:23:53;94025.81;;;4.37;100.00
5879;BME280;2965;42.640;23.370;2023-02-04T08:26:18;94030.84;;;4.30;100.00
5879;BME280;2965;42.640;23.370;2023-02-04T08:28:44;94023.84;;;4.22;100.00
5879;BME280;2965;42.640;23.370;2023-02-04T08:31:09;94012.81;;;4.20;100.00
5879;BME280;2965;42.640;23.370;2023-02-04T08:33:36;94002.16;;;4.23;100.00
5879;BME280;2965;42.640;23.370;2023-02-04T08:36:04;94011.88;;;4.21;100.00
5879;BME280;2965;42.640;23.370;2023-02-04T08:38:29;94016.09;;;4.30;100.00
5879;BME280;2965;42.640;23.370;2023-02-04T08:40:55;94006.38;;;4.33;100.00
5879;BME280;2965;42.640;23.370;2023-02-04T08:43:20;94015.09;;;4.23;100.00
5879;BME280;2965;42.640;23.370;2023-02-04T08:45:45;94022.34;;;4.20;100.00
5879;BME280;2965;42.640;23.370;2023-02-04T08:48:11;94003.94;;;4.23;100.00
5879;BME280;2965;42.640;23.370;2023-02-04T08:50:36;94003.16;;;4.30;100.00
5879;BME280;2965;42.640;23.370;2023-02-04T08:53:02;94011.53;;;4.24;100.00
5879;BME280;2965;42.640;23.370;2023-02-04T08:55:27;94005.09;;;4.37;100.00
5879;BME280;2965;42.640;23.370;2023-02-04T08:57:52;93998.63;;;4.33;100.00
5879;BME280;2965;42.640;23.370;2023-02-04T09:00:18;94005.41;;;4.34;100.00
5879;BME280;2965;42.640;23.370;2023-02-04T09:02:43;94008.16;;;4.32;100.00
5879;BME280;2965;42.640;23.370;2023-02-04T09:05:09;94003.50;;;4.36;100.00
5879;BME280;2965;42.640;23.370;2023-02-04T09:07:34;94003.50;;;4.44;100.00
5879;BME280;2965;42.640;23.370;2023-02-04T09:10:00;93998.03;;;4.55;100.00
5879;BME280;2965;42.640;23.370;2023-02-04T09:12:25;94007.28;;;4.58;100.00
5879;BME280;2965;42.640;23.370;2023-02-04T09:14:50;93999.50;;;4.66;100.00
5879;BME280;2965;42.640;23.370;2023-02-04T09:19:14;93994.34;;;4.66;100.00
5879;BME280;2965;42.640;23.370;2023-02-04T09:21:41;93994.50;;;4.72;100.00
5879;BME280;2965;42.640;23.370;2023-02-04T09:24:06;94045.34;;;4.81;100.00
5879;BME280;2965;42.640;23.370;2023-02-04T09:26:32;93992.22;;;4.86;100.00
5879;BME280;2965;42.640;23.370;2023-02-04T09:28:57;93979.94;;;4.79;100.00
5879;BME280;2965;42.640;23.370;2023-02-04T09:31:22;93995.47;;;4.79;100.00
5879;BME280;2965;42.640;23.370;2023-02-04T09:33:48;93995.47;;;4.71;100.00
5879;BME280;2965;42.640;23.370;2023-02-04T09:36:13;94004.22;;;4.70;100.00
5879;BME280;2965;42.640;23.370;2023-02-04T09:38:39;93993.53;;;4.65;100.00
5879;BME280;2965;42.640;23.370;2023-02-04T09:41:09;93997.72;;;4.58;100.00
5879;BME280;2965;42.640;23.370;2023-02-04T09:43:39;93990.22;;;4.47;100.00
5879;BME280;2965;42.640;23.370;2023-02-04T09:46:08;93986.13;;;4.28;100.00
5879;BME280;2965;42.640;23.370;2023-02-04T09:48:38;93984.03;;;4.23;100.00
5879;BME280;2965;42.640;23.370;2023-02-04T09:51:06;93972.06;;;4.22;100.00
5879;BME280;2965;42.640;23.370;2023-02-04T09:53:32;93978.19;;;4.13;100.00
5879;BME280;2965;42.640;23.370;2023-02-04T09:55:58;93984.34;;;4.12;100.00
5879;BME280;2965;42.640;23.370;2023-02-04T09:58:25;93978.09;;;3.97;100.00
5879;BME280;2965;42.640;23.370;2023-02-04T10:01:08;93970.06;;;4.08;100.00
5879;BME280;2965;42.640;23.370;2023-02-04T10:03:34;93960.69;;;4.15;100.00
5879;BME280;2965;42.640;23.370;2023-02-04T10:05:59;93963.63;;;4.20;100.00
5879;BME280;2965;42.640;23.370;2023-02-04T10:08:28;93956.69;;;4.29;100.00
5879;BME280;2965;42.640;23.370;2023-02-04T10:10:55;93943.44;;;4.40;100.00
5879;BME280;2965;42.640;23.370;2023-02-04T10:13:35;93948.47;;;4.50;100.00
5879;BME280;2965;42.640;23.370;2023-02-04T10:16:02;93940.19;;;4.38;100.00
5879;BME280;2965;42.640;23.370;2023-02-04T10:18:35;93941.03;;;4.39;100.00
5879;BME280;2965;42.640;23.370;2023-02-04T10:21:21;93948.78;;;4.47;100.00
5879;BME280;2965;42.640;23.370;2023-02-04T10:23:50;93922.88;;;4.47;100.00
5879;BME280;2965;42.640;23.370;2023-02-04T10:26:19;93926.44;;;4.38;100.00
5879;BME280;2965;42.640;23.370;2023-02-04T10:28:45;93924.81;;;4.28;100.00
5879;BME280;2965;42.640;23.370;2023-02-04T10:31:37;93936.47;;;4.33;100.00
5879;BME280;2965;42.640;23.370;2023-02-04T10:34:30;93931.31;;;4.41;100.00
5879;BME280;2965;42.640;23.370;2023-02-04T10:36:56;93933.59;;;4.52;100.00
5879;BME280;2965;42.640;23.370;2023-02-04T10:39:29;93936.81;;;4.54;100.00
5879;BME280;2965;42.640;23.370;2023-02-04T10:41:55;93948.16;;;4.53;100.00
5879;BME280;2965;42.640;23.370;2023-02-04T10:44:32;93940.34;;;4.28;100.00
5879;BME280;2965;42.640;23.370;2023-02-04T10:49:28;93928.63;;;4.00;100.00
5879;BME280;2965;42.640;23.370;2023-02-04T10:51:53;93933.03;;;4.08;100.00
5879;BME280;2965;42.640;23.370;2023-02-04T10:54:21;93922.97;;;4.04;100.00
5879;BME280;2965;42.640;23.370;2023-02-04T10:59:28;93913.44;;;4.05;100.00
5879;BME280;2965;42.640;23.370;2023-02-04T11:01:55;93905.34;;;4.00;100.00
5879;BME280;2965;42.640;23.370;2023-02-04T11:04:21;93900.81;;;4.10;100.00
5879;BME280;2965;42.640;23.370;2023-02-04T11:06:47;93916.06;;;4.13;100.00
5879;BME280;2965;42.640;23.370;2023-02-04T11:09:13;93899.72;;;4.13;100.00
5879;BME280;2965;42.640;23.370;2023-02-04T11:11:45;93901.19;;;4.32;100.00
5879;BME280;2965;42.640;23.370;2023-02-04T11:14:29;93896.34;;;4.45;100.00
5879;BME280;2965;42.640;23.370;2023-02-04T11:16:56;93897.63;;;4.41;100.00
5879;BME280;2965;42.640;23.370;2023-02-04T11:19:37;93889.88;;;4.49;100.00
5879;BME280;2965;42.640;23.370;2023-02-04T11:22:50;93891.81;;;4.55;100.00
5879;BME280;2965;42.640;23.370;2023-02-04T11:24:50;93898.63;;;4.48;100.00
5879;BME280;2965;42.640;23.370;2023-02-04T11:27:21;93892.97;;;4.44;100.00
5879;BME280;2965;42.640;23.370;2023-02-04T11:29:47;93898.78;;;4.54;100.00
5879;BME280;2965;42.640;23.370;2023-02-04T11:32:35;93900.88;;;4.59;100.00
5879;BME280;2965;42.640;23.370;2023-02-04T11:35:23;93931.00;;;4.52;100.00
5879;BME280;2965;42.640;23.370;2023-02-04T11:37:48;93910.91;;;4.46;100.00
5879;BME280;2965;42.640;23.370;2023-02-04T11:43:07;93913.34;;;4.39;100.00
5879;BME280;2965;42.640;23.370;2023-02-04T11:45:35;93898.94;;;4.45;100.00
5879;BME280;2965;42.640;23.370;2023-02-04T11:48:18;93910.59;;;4.49;100.00
5879;BME280;2965;42.640;23.370;2023-02-04T11:50:58;93919.00;;;4.51;100.00
5879;BME280;2965;42.640;23.370;2023-02-04T11:53:31;93907.00;;;4.34;100.00
5879;BME280;2965;42.640;23.370;2023-02-04T11:55:57;93904.75;;;4.30;100.00
5879;BME280;2965;42.640;23.370;2023-02-04T11:58:23;93901.84;;;4.50;100.00
5879;BME280;2965;42.640;23.370;2023-02-04T12:00:51;93901.53;;;4.53;100.00
5879;BME280;2965;42.640;23.370;2023-02-04T12:03:28;93909.78;;;4.40;100.00
5879;BME280;2965;42.640;23.370;2023-02-04T12:05:55;93897.59;;;4.24;100.00
5879;BME280;2965;42.640;23.370;2023-02-04T12:10:57;93885.13;;;4.03;100.00
5879;BME280;2965;42.640;23.370;2023-02-04T12:13:25;93894.53;;;4.13;100.00
5879;BME280;2965;42.640;23.370;2023-02-04T12:16:08;93895.13;;;3.90;100.00
5879;BME280;2965;42.640;23.370;2023-02-04T12:18:34;93892.06;;;3.95;100.00
5879;BME280;2965;42.640;23.370;2023-02-04T12:21:00;93890.09;;;3.89;100.00
5879;BME280;2965;42.640;23.370;2023-02-04T12:23:27;93885.25;;;3.86;100.00
5879;BME280;2965;42.640;23.370;2023-02-04T12:25:53;93885.53;;;3.74;100.00
5879;BME280;2965;42.640;23.370;2023-02-04T12:28:19;93879.03;;;3.70;100.00
5879;BME280;2965;42.640;23.370;2023-02-04T12:30:45;93873.56;;;3.73;100.00
5879;BME280;2965;42.640;23.370;2023-02-04T12:33:11;93874.25;;;3.84;100.00
5879;BME280;2965;42.640;23.370;2023-02-04T12:35:36;93862.22;;;3.66;100.00
5879;BME280;2965;42.640;23.370;2023-02-04T12:38:02;93869.19;;;3.74;100.00
5879;BME280;2965;42.640;23.370;2023-02-04T12:40:28;93864.66;;;3.76;100.00
5879;BME280;2965;42.640;23.370;2023-02-04T12:42:53;93865.84;;;3.82;100.00
5879;BME280;2965;42.640;23.370;2023-02-04T12:45:19;93882.47;;;3.79;100.00
5879;BME280;2965;42.640;23.370;2023-02-04T12:47:44;93864.69;;;3.84;100.00
5879;BME280;2965;42.640;23.370;2023-02-04T12:50:12;93873.28;;;3.93;100.00
5879;BME280;2965;42.640;23.370;2023-02-04T12:52:38;93871.38;;;3.95;100.00
5879;BME280;2965;42.640;23.370;2023-02-04T12:55:05;93878.31;;;4.02;100.00
5879;BME280;2965;42.640;23.370;2023-02-04T12:57:32;93878.81;;;4.06;100.00
5879;BME280;2965;42.640;23.370;2023-02-04T12:59:58;93879.81;;;4.13;100.00
5879;BME280;2965;42.640;23.370;2023-02-04T13:02:26;93900.22;;;4.16;100.00
5879;BME280;2965;42.640;23.370;2023-02-04T13:04:52;93866.53;;;4.24;100.00
5879;BME280;2965;42.640;23.370;2023-02-04T13:07:17;93877.53;;;4.18;100.00
5879;BME280;2965;42.640;23.370;2023-02-04T13:09:43;93875.75;;;4.19;100.00
5879;BME280;2965;42.640;23.370;2023-02-04T13:12:11;93873.03;;;4.12;100.00
5879;BME280;2965;42.640;23.370;2023-02-04T13:14:41;93877.84;;;4.07;100.00
5879;BME280;2965;42.640;23.370;2023-02-04T13:17:07;93883.69;;;4.09;100.00
5879;BME280;2965;42.640;23.370;2023-02-04T13:19:33;93891.63;;;4.08;100.00
5879;BME280;2965;42.640;23.370;2023-02-04T13:21:58;93891.44;;;4.01;100.00
5879;BME280;2965;42.640;23.370;2023-02-04T13:24:24;93878.31;;;3.94;100.00
5879;BME280;2965;42.640;23.370;2023-02-04T13:26:50;93906.78;;;3.94;100.00
5879;BME280;2965;42.640;23.370;2023-02-04T13:29:15;93897.22;;;3.87;100.00
5879;BME280;2965;42.640;23.370;2023-02-04T13:31:41;93903.38;;;3.86;100.00
5879;BME280;2965;42.640;23.370;2023-02-04T13:34:06;93900.44;;;3.89;100.00
5879;BME280;2965;42.640;23.370;2023-02-04T13:36:33;93896.22;;;3.79;100.00
5879;BME280;2965;42.640;23.370;2023-02-04T13:38:58;93898.78;;;3.71;100.00
5879;BME280;2965;42.640;23.370;2023-02-04T13:41:25;93891.34;;;3.68;100.00
5879;BME280;2965;42.640;23.370;2023-02-04T13:43:51;93894.22;;;3.65;100.00
5879;BME280;2965;42.640;23.370;2023-02-04T13:46:16;93887.28;;;3.66;100.00
5879;BME280;2965;42.640;23.370;2023-02-04T13:48:41;93911.38;;;3.66;100.00
5879;BME280;2965;42.640;23.370;2023-02-04T13:51:07;93886.16;;;3.68;100.00
5879;BME280;2965;42.640;23.370;2023-02-04T13:53:32;93903.94;;;3.71;100.00
5879;BME280;2965;42.640;23.370;2023-02-04T13:55:58;93895.22;;;3.64;100.00
5879;BME280;2965;42.640;23.370;2023-02-04T13:58:23;93910.06;;;3.62;100.00
5879;BME280;2965;42.640;23.370;2023-02-04T14:00:49;93916.03;;;3.63;100.00
5879;BME280;2965;42.640;23.370;2023-02-04T14:03:14;93911.03;;;3.61;100.00
5879;BME280;2965;42.640;23.370;2023-02-04T14:05:39;93914.06;;;3.57;100.00
5879;BME280;2965;42.640;23.370;2023-02-04T14:08:05;93912.94;;;3.51;100.00
5879;BME280;2965;42.640;23.370;2023-02-04T14:10:30;93923.28;;;3.51;100.00
5879;BME280;2965;42.640;23.370;2023-02-04T14:12:55;93932.00;;;3.50;100.00
5879;BME280;2965;42.640;23.370;2023-02-04T14:15:23;93926.66;;;3.51;100.00
5879;BME280;2965;42.640;23.370;2023-02-04T14:17:48;93932.00;;;3.58;100.00
5879;BME280;2965;42.640;23.370;2023-02-04T14:20:14;93933.03;;;3.65;100.00
5879;BME280;2965;42.640;23.370;2023-02-04T14:22:39;93936.25;;;3.67;100.00
5879;BME280;2965;42.640;23.370;2023-02-04T14:25:05;93925.91;;;3.67;100.00
5879;BME280;2965;42.640;23.370;2023-02-04T14:27:31;93939.44;;;3.53;100.00
5879;BME280;2965;42.640;23.370;2023-02-04T14:29:56;93945.88;;;3.49;100.00
5879;BME280;2965;42.640;23.370;2023-02-04T14:32:22;93945.53;;;3.44;100.00
5879;BME280;2965;42.640;23.370;2023-02-04T14:34:47;93964.19;;;3.29;100.00
5879;BME280;2965;42.640;23.370;2023-02-04T14:37:13;94004.16;;;2.73;100.00
5879;BME280;2965;42.640;23.370;2023-02-04T14:39:38;93959.81;;;2.60;100.00
5879;BME280;2965;42.640;23.370;2023-02-04T14:42:03;93967.09;;;2.47;100.00
5879;BME280;2965;42.640;23.370;2023-02-04T14:44:30;93965.84;;;2.51;100.00
5879;BME280;2965;42.640;23.370;2023-02-04T14:46:55;93986.81;;;2.48;100.00
5879;BME280;2965;42.640;23.370;2023-02-04T14:49:21;93974.28;;;2.53;100.00
5879;BME280;2965;42.640;23.370;2023-02-04T14:51:46;93974.56;;;2.50;100.00
5879;BME280;2965;42.640;23.370;2023-02-04T14:54:11;93989.69;;;2.45;100.00
5879;BME280;2965;42.640;23.370;2023-02-04T14:56:38;93977.44;;;2.47;100.00
5879;BME280;2965;42.640;23.370;2023-02-04T14:59:03;93996.47;;;2.46;100.00
5879;BME280;2965;42.640;23.370;2023-02-04T15:01:28;94011.38;;;2.52;100.00
5879;BME280;2965;42.640;23.370;2023-02-04T15:03:55;94004.31;;;2.54;100.00
5879;BME280;2965;42.640;23.370;2023-02-04T15:06:20;94006.19;;;2.52;100.00
5879;BME280;2965;42.640;23.370;2023-02-04T15:08:45;93996.72;;;2.52;100.00
5879;BME280;2965;42.640;23.370;2023-02-04T15:11:11;94008.41;;;2.47;100.00
5879;BME280;2965;42.640;23.370;2023-02-04T15:13:36;94004.91;;;2.48;100.00
5879;BME280;2965;42.640;23.370;2023-02-04T15:16:02;94016.84;;;2.49;100.00
5879;BME280;2965;42.640;23.370;2023-02-04T15:18:27;94001.03;;;2.52;100.00
5879;BME280;2965;42.640;23.370;2023-02-04T15:20:53;94026.56;;;2.55;100.00
5879;BME280;2965;42.640;23.370;2023-02-04T15:23:18;94020.75;;;2.53;100.00
5879;BME280;2965;42.640;23.370;2023-02-04T15:25:44;94023.03;;;2.56;100.00
5879;BME280;2965;42.640;23.370;2023-02-04T15:28:11;94014.91;;;2.51;100.00
5879;BME280;2965;42.640;23.370;2023-02-04T15:30:36;94035.28;;;2.54;100.00
5879;BME280;2965;42.640;23.370;2023-02-04T15:33:21;94030.41;;;2.51;100.00
5879;BME280;2965;42.640;23.370;2023-02-04T15:35:46;94027.97;;;2.49;100.00
5879;BME280;2965;42.640;23.370;2023-02-04T15:38:11;94031.28;;;2.42;100.00
5879;BME280;2965;42.640;23.370;2023-02-04T15:40:37;94041.88;;;2.39;100.00
5879;BME280;2965;42.640;23.370;2023-02-04T15:43:02;94050.44;;;2.21;100.00
5879;BME280;2965;42.640;23.370;2023-02-04T15:45:28;94058.34;;;2.10;100.00
5879;BME280;2965;42.640;23.370;2023-02-04T15:47:53;94082.97;;;2.05;100.00
5879;BME280;2965;42.640;23.370;2023-02-04T15:50:18;94064.38;;;2.01;100.00
5879;BME280;2965;42.640;23.370;2023-02-04T15:52:44;94052.31;;;1.92;100.00
5879;BME280;2965;42.640;23.370;2023-02-04T15:55:09;94079.34;;;1.88;100.00
5879;BME280;2965;42.640;23.370;2023-02-04T15:57:34;94060.59;;;1.86;100.00
5879;BME280;2965;42.640;23.370;2023-02-04T16:00:01;94055.75;;;1.83;100.00
5879;BME280;2965;42.640;23.370;2023-02-04T16:02:26;94070.16;;;1.75;100.00
5879;BME280;2965;42.640;23.370;2023-02-04T16:04:52;94065.28;;;1.72;100.00
5879;BME280;2965;42.640;23.370;2023-02-04T16:07:17;94072.63;;;1.67;100.00
5879;BME280;2965;42.640;23.370;2023-02-04T16:09:43;94045.78;;;1.60;100.00
5879;BME280;2965;42.640;23.370;2023-02-04T16:12:08;94066.94;;;1.54;100.00
5879;BME280;2965;42.640;23.370;2023-02-04T16:14:34;94068.06;;;1.51;100.00
5879;BME280;2965;42.640;23.370;2023-02-04T16:16:59;94074.28;;;1.49;100.00
5879;BME280;2965;42.640;23.370;2023-02-04T16:19:26;94091.69;;;1.47;100.00
5879;BME280;2965;42.640;23.370;2023-02-04T16:21:51;94090.03;;;1.46;100.00
5879;BME280;2965;42.640;23.370;2023-02-04T16:24:17;94134.81;;;1.45;100.00
5879;BME280;2965;42.640;23.370;2023-02-04T16:26:43;94125.88;;;1.39;100.00
5879;BME280;2965;42.640;23.370;2023-02-04T16:29:09;94112.44;;;1.36;100.00
5879;BME280;2965;42.640;23.370;2023-02-04T16:31:34;94118.00;;;1.31;100.00
5879;BME280;2965;42.640;23.370;2023-02-04T16:33:59;94130.47;;;1.36;100.00
5879;BME280;2965;42.640;23.370;2023-02-04T16:36:25;94151.25;;;1.24;100.00
5879;BME280;2965;42.640;23.370;2023-02-04T16:38:50;94141.47;;;1.18;100.00
5879;BME280;2965;42.640;23.370;2023-02-04T16:41:15;94160.84;;;1.22;100.00
5879;BME280;2965;42.640;23.370;2023-02-04T16:43:41;94194.22;;;1.14;100.00
5879;BME280;2965;42.640;23.370;2023-02-04T16:46:06;94186.06;;;1.09;100.00
5879;BME280;2965;42.640;23.370;2023-02-04T16:48:32;94178.09;;;1.03;100.00
5879;BME280;2965;42.640;23.370;2023-02-04T16:50:57;94168.69;;;1.01;100.00
5879;BME280;2965;42.640;23.370;2023-02-04T16:53:23;94185.25;;;0.99;100.00
5879;BME280;2965;42.640;23.370;2023-02-04T16:55:48;94177.38;;;0.91;100.00
5879;BME280;2965;42.640;23.370;2023-02-04T16:58:14;94161.25;;;0.89;100.00
5879;BME280;2965;42.640;23.370;2023-02-04T17:00:40;94182.53;;;0.91;100.00
5879;BME280;2965;42.640;23.370;2023-02-04T17:03:10;94182.66;;;0.89;100.00
5879;BME280;2965;42.640;23.370;2023-02-04T17:05:37;94182.38;;;0.83;100.00
5879;BME280;2965;42.640;23.370;2023-02-04T17:08:03;94187.13;;;0.87;100.00
5879;BME280;2965;42.640;23.370;2023-02-04T17:10:28;94187.50;;;0.83;100.00
5879;BME280;2965;42.640;23.370;2023-02-04T17:13:13;94171.66;;;0.78;100.00
5879;BME280;2965;42.640;23.370;2023-02-04T17:15:38;94172.84;;;0.73;100.00
5879;BME280;2965;42.640;23.370;2023-02-04T17:18:04;94185.47;;;0.77;100.00
5879;BME280;2965;42.640;23.370;2023-02-04T17:20:29;94189.25;;;0.72;100.00
5879;BME280;2965;42.640;23.370;2023-02-04T17:22:55;94191.97;;;0.71;100.00
5879;BME280;2965;42.640;23.370;2023-02-04T17:25:21;94180.16;;;0.68;100.00
5879;BME280;2965;42.640;23.370;2023-02-04T17:27:46;94176.63;;;0.69;100.00
5879;BME280;2965;42.640;23.370;2023-02-04T17:30:14;94189.50;;;0.69;100.00
5879;BME280;2965;42.640;23.370;2023-02-04T17:32:40;94187.91;;;0.68;100.00
5879;BME280;2965;42.640;23.370;2023-02-04T17:35:06;94201.03;;;0.65;100.00
5879;BME280;2965;42.640;23.370;2023-02-04T17:37:31;94208.47;;;0.59;100.00
5879;BME280;2965;42.640;23.370;2023-02-04T17:39:57;94213.63;;;0.59;100.00
5879;BME280;2965;42.640;23.370;2023-02-04T17:42:22;94199.22;;;0.56;100.00
5879;BME280;2965;42.640;23.370;2023-02-04T17:44:47;94211.13;;;0.47;100.00
5879;BME280;2965;42.640;23.370;2023-02-04T17:47:14;94215.69;;;0.44;100.00
5879;BME280;2965;42.640;23.370;2023-02-04T17:49:40;94203.28;;;0.49;100.00
5879;BME280;2965;42.640;23.370;2023-02-04T17:52:05;94227.66;;;0.45;100.00
5879;BME280;2965;42.640;23.370;2023-02-04T17:54:30;94224.41;;;0.53;100.00
5879;BME280;2965;42.640;23.370;2023-02-04T17:56:57;94201.91;;;0.45;100.00
5879;BME280;2965;42.640;23.370;2023-02-04T17:59:25;94211.94;;;0.48;100.00
5879;BME280;2965;42.640;23.370;2023-02-04T18:01:51;94221.56;;;0.46;100.00
5879;BME280;2965;42.640;23.370;2023-02-04T18:04:16;94221.13;;;0.41;100.00
5879;BME280;2965;42.640;23.370;2023-02-04T18:06:42;94224.13;;;0.46;100.00
5879;BME280;2965;42.640;23.370;2023-02-04T18:09:15;94235.47;;;0.43;100.00
5879;BME280;2965;42.640;23.370;2023-02-04T18:11:40;94250.28;;;0.51;100.00
5879;BME280;2965;42.640;23.370;2023-02-04T18:14:15;94230.34;;;0.43;100.00
5879;BME280;2965;42.640;23.370;2023-02-04T18:16:43;94232.81;;;0.45;100.00
5879;BME280;2965;42.640;23.370;2023-02-04T18:21:39;94234.09;;;0.39;100.00
5879;BME280;2965;42.640;23.370;2023-02-04T18:26:40;94240.34;;;0.37;100.00